Time;durP1;ratioP1;P1;durP2;ratioP2;P2;SDS_P1;SDS_P2;PMS_P1;PMS_P2;Temp;Humidity;BMP_temperature;BMP_pressure;BME280_temperature;BME280_humidity;BME280_pressure;Samples;Min_cycle;Max_cycle;Signal;HPM_P1;HPM_P2
2023/03/31 00:00:37;;;;;;;8.33;3.87;;;6.90;99.90;;;;;;5035769;28;20168;-82
2023/03/31 00:03:08;;;;;;;6.40;3.40;;;6.90;99.90;;;;;;5036752;28;20180;-81
2023/03/31 00:05:36;;;;;;;4.97;3.10;;;6.90;99.90;;;;;;5035710;28;20170;-82
2023/03/31 00:08:02;;;;;;;6.17;3.13;;;6.90;99.90;;;;;;5036544;28;20204;-82
2023/03/31 00:10:32;;;;;;;6.30;3.87;;;7.00;99.90;;;;;;5018854;28;20816;-82
2023/03/31 00:12:59;;;;;;;4.03;2.87;;;6.90;99.90;;;;;;5036596;28;20226;-83
2023/03/31 00:15:26;;;;;;;6.93;3.93;;;6.90;99.90;;;;;;5036323;28;20259;-82
2023/03/31 00:17:52;;;;;;;5.37;3.00;;;6.90;99.90;;;;;;5018612;28;20240;-83
2023/03/31 00:20:17;;;;;;;3.23;2.73;;;7.00;99.90;;;;;;5035039;28;20514;-82
2023/03/31 00:22:46;;;;;;;8.63;3.47;;;7.00;99.90;;;;;;5018661;28;20181;-82
2023/03/31 00:25:13;;;;;;;4.00;2.37;;;6.90;99.90;;;;;;5036083;28;20264;-81
2023/03/31 00:27:43;;;;;;;7.33;3.63;;;6.90;99.90;;;;;;5034893;28;20216;-82
2023/03/31 00:30:10;;;;;;;6.87;3.73;;;6.90;99.90;;;;;;5036074;28;20173;-83
2023/03/31 00:32:35;;;;;;;3.37;2.83;;;6.90;99.90;;;;;;5034883;28;20176;-81
2023/03/31 00:35:01;;;;;;;7.27;2.97;;;6.90;99.90;;;;;;5035000;28;20182;-82
2023/03/31 00:37:29;;;;;;;4.40;3.07;;;6.90;99.90;;;;;;5034562;28;20246;-83
2023/03/31 00:39:55;;;;;;;6.63;3.40;;;6.90;99.90;;;;;;5034745;28;20575;-82
2023/03/31 00:42:21;;;;;;;7.83;3.10;;;6.90;99.90;;;;;;5035764;28;20187;-82
2023/03/31 00:45:15;;;;;;;5.60;4.07;;;6.80;99.90;;;;;;5036079;28;20188;-82
2023/03/31 00:47:53;;;;;;;6.03;3.33;;;6.90;99.90;;;;;;5034564;28;20299;-81
2023/03/31 00:50:24;;;;;;;8.70;3.70;;;6.90;99.90;;;;;;5034393;28;20172;-81
2023/03/31 00:52:59;;;;;;;5.13;3.20;;;6.90;99.90;;;;;;5035888;28;20211;-81
2023/03/31 00:55:32;;;;;;;4.90;3.57;;;6.90;99.90;;;;;;5035403;28;20157;-82
2023/03/31 00:58:00;;;;;;;2.63;2.20;;;6.90;99.90;;;;;;5034476;28;20249;-81
2023/03/31 01:00:26;;;;;;;5.13;3.43;;;6.90;99.90;;;;;;5034377;28;20177;-82
2023/03/31 01:03:00;;;;;;;4.60;3.00;;;6.90;99.90;;;;;;5035814;28;20183;-82
2023/03/31 01:05:31;;;;;;;7.33;3.83;;;6.90;99.90;;;;;;5035428;28;20728;-82
2023/03/31 01:07:58;;;;;;;7.50;3.23;;;6.90;99.90;;;;;;5035121;28;20205;-82
2023/03/31 01:10:24;;;;;;;6.63;4.03;;;6.90;99.90;;;;;;5033915;28;20181;-83
2023/03/31 01:12:53;;;;;;;5.30;3.40;;;6.90;99.90;;;;;;5035182;28;20217;-82
2023/03/31 01:15:19;;;;;;;4.60;2.97;;;6.90;99.90;;;;;;5035234;28;20177;-81
2023/03/31 01:17:48;;;;;;;2.53;1.70;;;6.90;99.90;;;;;;5033855;28;20255;-82
2023/03/31 01:20:57;;;;;;;6.93;3.60;;;6.90;99.90;;;;;;5035151;28;20173;-83
2023/03/31 01:24:04;;;;;;;4.43;3.30;;;6.90;99.90;;;;;;5035195;28;20186;-82
2023/03/31 01:26:55;;;;;;;3.70;3.40;;;6.90;99.90;;;;;;5027556;28;20279;-83
2023/03/31 01:29:54;;;;;;;5.23;3.03;;;6.90;99.90;;;;;;5033371;28;20212;-82
2023/03/31 01:32:29;;;;;;;6.03;3.67;;;6.90;99.90;;;;;;5033665;28;20185;-82
2023/03/31 01:35:32;;;;;;;4.50;3.20;;;6.90;99.90;;;;;;5035059;28;20202;-82
2023/03/31 01:38:33;;;;;;;6.47;3.67;;;6.90;99.90;;;;;;5034774;28;20180;-82
2023/03/31 01:41:10;;;;;;;5.60;3.17;;;6.90;99.90;;;;;;5050290;28;20179;-82
2023/03/31 01:44:01;;;;;;;5.40;3.67;;;6.90;99.90;;;;;;5034686;28;20168;-82
2023/03/31 01:46:38;;;;;;;5.50;3.57;;;6.90;99.90;;;;;;5033422;28;20540;-81
2023/03/31 01:49:22;;;;;;;6.67;3.93;;;7.00;99.90;;;;;;5033532;28;20208;-82
2023/03/31 01:51:57;;;;;;;6.43;4.17;;;7.00;99.90;;;;;;5034825;28;20168;-82
2023/03/31 01:55:07;;;;;;;12.40;4.30;;;7.00;99.90;;;;;;5034538;28;20168;-81
2023/03/31 01:57:53;;;;;;;5.57;3.50;;;7.00;99.90;;;;;;5023920;28;20224;-82
2023/03/31 02:00:25;;;;;;;6.07;4.20;;;7.00;99.90;;;;;;5034415;28;20168;-83
2023/03/31 02:03:15;;;;;;;9.53;5.07;;;7.00;99.90;;;;;;5034495;28;20571;-81
2023/03/31 02:06:09;;;;;;;6.73;4.17;;;7.10;99.90;;;;;;5033070;28;20184;-82
2023/03/31 02:08:43;;;;;;;5.87;4.13;;;7.10;99.90;;;;;;5033380;28;20669;-82
2023/03/31 02:11:09;;;;;;;6.70;4.47;;;7.10;99.90;;;;;;5034134;28;20223;-81
2023/03/31 02:13:38;;;;;;;9.33;5.13;;;7.10;99.90;;;;;;5032946;28;20240;-81
2023/03/31 02:16:08;;;;;;;9.23;4.03;;;7.10;99.90;;;;;;5033083;28;20540;-81
2023/03/31 02:18:36;;;;;;;11.47;5.37;;;7.10;99.90;;;;;;5033284;28;20258;-82
2023/03/31 02:21:04;;;;;;;6.67;4.77;;;7.10;99.90;;;;;;5034265;28;20211;-82
2023/03/31 02:23:31;;;;;;;7.57;4.40;;;7.10;99.90;;;;;;5032532;28;20180;-82
2023/03/31 02:26:07;;;;;;;11.20;5.47;;;7.20;99.90;;;;;;5032910;28;20184;-82
2023/03/31 02:28:33;;;;;;;8.00;4.90;;;7.20;99.90;;;;;;5033804;28;20204;-82
2023/03/31 02:31:11;;;;;;;17.00;4.97;;;7.20;99.90;;;;;;5033964;28;20180;-81
2023/03/31 02:33:36;;;;;;;14.20;5.87;;;7.20;99.90;;;;;;5032459;28;20202;-82
2023/03/31 02:36:02;;;;;;;9.97;6.13;;;7.20;99.90;;;;;;5033862;28;20260;-82
2023/03/31 02:38:35;;;;;;;7.33;4.47;;;7.20;99.90;;;;;;5032305;28;20185;-82
2023/03/31 02:41:01;;;;;;;10.27;5.87;;;7.20;99.90;;;;;;5033827;28;20167;-83
2023/03/31 02:43:27;;;;;;;8.00;5.20;;;7.20;99.90;;;;;;5032442;28;20181;-82
2023/03/31 02:45:52;;;;;;;10.20;5.77;;;7.20;99.90;;;;;;5033834;28;20649;-82
2023/03/31 02:48:21;;;;;;;9.90;5.87;;;7.20;99.90;;;;;;5015969;28;20212;-82
2023/03/31 02:51:06;;;;;;;11.10;5.47;;;7.30;99.90;;;;;;5033460;28;20177;-81
2023/03/31 02:54:05;;;;;;;8.13;5.13;;;7.30;99.90;;;;;;5032191;28;20180;-82
2023/03/31 02:57:01;;;;;;;10.87;5.97;;;7.30;99.90;;;;;;5033415;28;20161;-82
2023/03/31 02:59:36;;;;;;;11.17;5.90;;;7.30;99.90;;;;;;5033413;28;20234;-82
2023/03/31 03:02:10;;;;;;;11.33;5.23;;;7.20;99.90;;;;;;5032396;28;20571;-82
2023/03/31 03:04:41;;;;;;;11.63;5.13;;;7.20;99.90;;;;;;5033704;28;20679;-82
2023/03/31 03:07:33;;;;;;;11.17;5.30;;;7.30;99.90;;;;;;5032392;28;20168;-82
2023/03/31 03:10:15;;;;;;;7.70;5.73;;;7.30;99.90;;;;;;5032005;28;20193;-81
2023/03/31 03:12:52;;;;;;;13.73;4.87;;;7.30;99.90;;;;;;5051314;28;20592;-82
2023/03/31 03:15:31;;;;;;;13.00;6.50;;;7.30;99.90;;;;;;5033322;28;20173;-81
2023/03/31 03:17:58;;;;;;;11.37;6.73;;;7.30;99.90;;;;;;5031593;28;20240;-81
2023/03/31 03:20:24;;;;;;;11.20;6.17;;;7.30;99.90;;;;;;5033515;28;20211;-81
2023/03/31 03:22:50;;;;;;;11.23;6.60;;;7.30;99.90;;;;;;5033274;28;20284;-81
2023/03/31 03:25:17;;;;;;;12.77;6.40;;;7.30;99.90;;;;;;5032035;28;20680;-81
2023/03/31 03:27:42;;;;;;;10.23;6.30;;;7.30;99.90;;;;;;5015189;28;20542;-82
2023/03/31 03:30:10;;;;;;;10.83;5.63;;;7.30;99.90;;;;;;5034462;28;20223;-82
2023/03/31 03:32:36;;;;;;;11.03;6.57;;;7.30;99.90;;;;;;5048297;28;20195;-81
2023/03/31 03:35:03;;;;;;;14.53;6.07;;;7.30;99.90;;;;;;5044564;28;20184;-82
2023/03/31 03:37:30;;;;;;;13.37;7.23;;;7.30;99.90;;;;;;5043623;28;20196;-84
2023/03/31 03:39:56;;;;;;;18.10;7.27;;;;;;;;;;5052986;28;20192;-82
2023/03/31 03:42:21;;;;;;;12.80;7.23;;;7.40;99.90;;;;;;5044644;28;21701;-82
2023/03/31 03:44:47;;;;;;;13.37;6.97;;;7.30;99.90;;;;;;5044817;28;20249;-83
2023/03/31 03:47:13;;;;;;;13.90;6.57;;;7.40;99.90;;;;;;5022436;28;20180;-83
2023/03/31 03:49:39;;;;;;;12.97;6.83;;;7.40;99.90;;;;;;5036022;28;20200;-84
2023/03/31 03:52:05;;;;;;;15.67;7.50;;;7.40;99.90;;;;;;5052062;28;20219;-84
2023/03/31 03:54:31;;;;;;;14.67;7.77;;;;;;;;;;5035562;28;20275;-86
2023/03/31 03:56:57;;;;;;;13.10;6.37;;;7.40;99.90;;;;;;5048018;28;20282;-84
2023/03/31 03:59:22;;;;;;;11.20;7.00;;;7.50;99.90;;;;;;5021998;28;20735;-84
2023/03/31 04:01:48;;;;;;;7.57;5.90;;;7.50;99.90;;;;;;5039566;28;20188;-83
2023/03/31 04:04:14;;;;;;;12.77;7.53;;;7.50;99.90;;;;;;5039398;28;20524;-84
2023/03/31 04:06:39;;;;;;;12.57;6.97;;;7.50;99.90;;;;;;5039066;28;20648;-83
2023/03/31 04:09:05;;;;;;;16.13;8.40;;;7.60;99.90;;;;;;5039827;28;20292;-84
2023/03/31 04:11:31;;;;;;;12.23;7.70;;;7.60;99.90;;;;;;5057534;28;20710;-85
2023/03/31 04:13:57;;;;;;;14.83;7.43;;;7.60;99.90;;;;;;5045636;28;20211;-83
2023/03/31 04:16:24;;;;;;;13.70;7.30;;;7.60;99.90;;;;;;5035586;28;20560;-84
2023/03/31 04:18:51;;;;;;;16.67;8.03;;;;;;;;;;5023096;28;20234;-83
2023/03/31 04:21:24;;;;;;;9.87;6.67;;;;;;;;;;5056316;28;20278;-85
2023/03/31 04:24:06;;;;;;;16.50;7.93;;;7.80;99.90;;;;;;5040270;28;20199;-84
2023/03/31 04:26:51;;;;;;;11.40;6.03;;;7.70;99.90;;;;;;5056221;28;20183;-84
2023/03/31 04:29:21;;;;;;;11.23;7.20;;;7.80;99.90;;;;;;5056304;28;20218;-83
2023/03/31 04:31:47;;;;;;;17.57;8.30;;;7.80;99.90;;;;;;5023902;28;20207;-84
2023/03/31 04:34:14;;;;;;;11.70;7.13;;;7.90;99.90;;;;;;5044831;28;20195;-83
2023/03/31 04:36:45;;;;;;;12.00;7.80;;;8.00;99.90;;;;;;5059398;28;20196;-84
2023/03/31 04:39:13;;;;;;;13.43;7.37;;;7.90;99.90;;;;;;5048488;28;20532;-84
2023/03/31 04:41:39;;;;;;;15.13;7.57;;;;;;;;;;5055594;28;20176;-83
2023/03/31 04:44:05;;;;;;;10.37;6.97;;;;;;;;;;5053992;28;20257;-83
2023/03/31 04:46:32;;;;;;;19.07;6.57;;;8.10;99.90;;;;;;5045065;28;20184;-83
2023/03/31 04:48:58;;;;;;;11.50;7.20;;;;;;;;;;5045796;28;20216;-83
2023/03/31 04:51:24;;;;;;;16.87;8.10;;;;;;;;;;5052623;28;20196;-84
2023/03/31 04:53:50;;;;;;;17.77;8.60;;;;;;;;;;5052053;28;20179;-83
2023/03/31 04:56:16;;;;;;;17.07;7.80;;;;;;;;;;5036230;28;20203;-83
2023/03/31 04:58:43;;;;;;;17.63;8.20;;;;;;;;;;5046026;28;20227;-83
2023/03/31 05:01:12;;;;;;;24.00;9.33;;;8.30;99.90;;;;;;5053830;28;20211;-84
2023/03/31 05:03:38;;;;;;;14.23;7.93;;;;;;;;;;5042007;28;20224;-83
2023/03/31 05:06:04;;;;;;;14.17;8.10;;;8.30;99.90;;;;;;5039576;28;20192;-83
2023/03/31 05:08:30;;;;;;;16.37;7.63;;;;;;;;;;5033023;28;20211;-84
2023/03/31 05:10:57;;;;;;;15.77;6.97;;;;;;;;;;5035007;28;20651;-83
2023/03/31 05:13:22;;;;;;;16.87;6.43;;;8.30;99.90;;;;;;5035298;28;20172;-82
2023/03/31 05:15:50;;;;;;;12.60;6.27;;;8.30;99.90;;;;;;5035007;28;20177;-83
2023/03/31 05:18:16;;;;;;;9.53;5.60;;;8.40;99.90;;;;;;5040989;28;20239;-83
2023/03/31 05:20:42;;;;;;;14.40;8.00;;;8.40;99.90;;;;;;5033789;28;20181;-85
2023/03/31 05:23:08;;;;;;;12.03;7.47;;;;;;;;;;5034115;28;20191;-83
2023/03/31 05:25:34;;;;;;;20.63;8.70;;;8.40;99.90;;;;;;5035010;28;20177;-83
2023/03/31 05:28:00;;;;;;;9.87;5.87;;;8.40;99.90;;;;;;5017126;28;20573;-83
2023/03/31 05:30:26;;;;;;;15.97;7.33;;;;;;;;;;5033929;28;20268;-83
2023/03/31 05:32:52;;;;;;;16.43;7.20;;;8.30;99.90;;;;;;5033489;28;20187;-83
2023/03/31 05:35:18;;;;;;;11.57;6.53;;;8.50;99.90;;;;;;5017520;28;20189;-83
2023/03/31 05:37:44;;;;;;;13.93;7.83;;;8.50;99.90;;;;;;5000548;28;20192;-84
2023/03/31 05:40:10;;;;;;;19.13;7.17;;;8.50;99.90;;;;;;5033905;28;20220;-83
2023/03/31 05:42:36;;;;;;;21.73;8.00;;;8.50;99.90;;;;;;5034826;28;20208;-81
2023/03/31 05:45:03;;;;;;;14.73;7.63;;;8.50;99.90;;;;;;5033688;28;20192;-82
2023/03/31 05:47:29;;;;;;;13.67;7.43;;;8.50;99.90;;;;;;5033413;28;20625;-82
2023/03/31 05:49:55;;;;;;;14.27;7.43;;;8.60;99.90;;;;;;5016731;28;20185;-82
2023/03/31 05:52:20;;;;;;;14.30;7.23;;;8.70;99.90;;;;;;5034952;28;20235;-81
2023/03/31 05:54:46;;;;;;;16.37;7.93;;;;;;;;;;5015199;28;20188;-85
2023/03/31 05:57:12;;;;;;;17.87;6.60;;;8.70;99.90;;;;;;5034182;28;20181;-84
2023/03/31 05:59:40;;;;;;;11.93;6.17;;;;;;;;;;5034613;28;20581;-84
2023/03/31 06:02:07;;;;;;;13.43;6.80;;;;;;;;;;5032599;28;20419;-82
2023/03/31 06:04:33;;;;;;;10.80;4.87;;;;;;;;;;5034360;28;20172;-85
2023/03/31 06:06:59;;;;;;;9.60;5.60;;;8.90;99.90;;;;;;5033090;28;20181;-83
2023/03/31 06:09:25;;;;;;;12.70;6.13;;;8.90;99.90;;;;;;5034512;28;20227;-85
2023/03/31 06:11:51;;;;;;;10.53;5.50;;;;;;;;;;5032461;28;20181;-82
2023/03/31 06:14:17;;;;;;;11.77;5.53;;;9.00;99.90;;;;;;5034549;28;20181;-84
2023/03/31 06:16:43;;;;;;;12.10;5.93;;;;;;;;;;5016490;28;20184;-82
2023/03/31 06:19:09;;;;;;;13.27;5.43;;;9.10;99.90;;;;;;5032509;28;20240;-83
2023/03/31 06:21:34;;;;;;;12.53;6.37;;;9.20;99.90;;;;;;5032906;28;20255;-83
2023/03/31 06:24:00;;;;;;;11.73;6.27;;;9.30;99.90;;;;;;5032337;28;20583;-80
2023/03/31 06:26:27;;;;;;;11.33;6.57;;;9.30;99.90;;;;;;5032880;28;20180;-82
2023/03/31 06:28:52;;;;;;;8.47;5.57;;;9.40;99.90;;;;;;5032320;28;20688;-83
2023/03/31 06:31:21;;;;;;;10.43;5.73;;;9.50;99.90;;;;;;5016286;28;20231;-83
2023/03/31 06:33:47;;;;;;;11.30;5.30;;;9.50;99.90;;;;;;5033837;28;20212;-81
2023/03/31 06:36:16;;;;;;;13.63;6.07;;;9.60;99.90;;;;;;5032260;28;20212;-81
2023/03/31 06:38:42;;;;;;;8.97;4.47;;;9.70;99.90;;;;;;5032466;28;20191;-85
2023/03/31 06:41:10;;;;;;;12.90;6.60;;;9.80;99.90;;;;;;5032214;28;20652;-83
2023/03/31 06:43:36;;;;;;;10.27;5.10;;;9.90;99.90;;;;;;5032394;28;20250;-83
2023/03/31 06:46:02;;;;;;;5.57;4.07;;;10.00;99.90;;;;;;5032424;28;20176;-84
2023/03/31 06:48:28;;;;;;;12.40;6.53;;;;;;;;;;5032452;28;20578;-84
2023/03/31 06:50:54;;;;;;;10.07;4.87;;;10.20;99.90;;;;;;5033159;28;20189;-84
2023/03/31 06:53:21;;;;;;;10.30;4.90;;;10.30;99.90;;;;;;5032463;28;20173;-84
2023/03/31 06:55:46;;;;;;;12.25;5.88;;;10.30;99.90;;;;;;5032271;28;20544;-84
2023/03/31 06:58:13;;;;;;;8.48;4.40;;;10.40;99.90;;;;;;5032178;28;20181;-83
2023/03/31 07:00:39;;;;;;;10.40;4.18;;;10.30;99.90;;;;;;5033529;28;20196;-84
2023/03/31 07:03:07;;;;;;;7.97;3.75;;;10.30;99.90;;;;;;5032287;28;20287;-83
2023/03/31 07:05:33;;;;;;;8.13;4.17;;;10.30;99.90;;;;;;5033018;28;20267;-85
2023/03/31 07:08:00;;;;;;;6.32;3.80;;;10.30;99.90;;;;;;5031770;28;20219;-82
2023/03/31 07:10:29;;;;;;;6.97;4.27;;;10.20;99.90;;;;;;5032075;28;20203;-82
2023/03/31 07:12:55;;;;;;;10.88;4.03;;;10.20;99.90;;;;;;5031931;28;20545;-82
2023/03/31 07:15:21;;;;;;;7.70;4.47;;;10.20;99.90;;;;;;5015363;28;20191;-83
2023/03/31 07:17:49;;;;;;;7.72;4.35;;;10.20;99.90;;;;;;5032901;28;20765;-83
2023/03/31 07:20:17;;;;;;;7.65;4.43;;;10.20;99.90;;;;;;5031529;28;20200;-83
2023/03/31 07:22:47;;;;;;;7.10;4.40;;;10.20;99.90;;;;;;5033070;28;20172;-82
2023/03/31 07:25:15;;;;;;;7.15;3.65;;;10.30;99.90;;;;;;5015077;28;20194;-83
2023/03/31 07:27:41;;;;;;;8.20;4.53;;;10.50;99.90;;;;;;5015199;28;20303;-83
2023/03/31 07:30:09;;;;;;;8.10;4.40;;;10.60;99.90;;;;;;5015113;28;20416;-83
2023/03/31 07:32:39;;;;;;;7.20;3.65;;;10.70;99.90;;;;;;5015573;28;20271;-82
2023/03/31 07:35:05;;;;;;;9.45;4.55;;;10.70;99.90;;;;;;5032451;28;20183;-82
2023/03/31 07:37:43;;;;;;;6.63;3.65;;;10.80;99.90;;;;;;5031996;28;20177;-82
2023/03/31 07:40:11;;;;;;;10.00;4.30;;;11.00;99.90;;;;;;5031497;28;20614;-82
2023/03/31 07:42:37;;;;;;;6.80;3.97;;;11.10;99.90;;;;;;5032822;28;20568;-82
2023/03/31 07:45:06;;;;;;;6.80;4.57;;;11.30;99.90;;;;;;5031401;28;20235;-82
2023/03/31 07:47:32;;;;;;;10.00;5.53;;;11.30;99.90;;;;;;5031601;28;20641;-82
2023/03/31 07:49:58;;;;;;;8.18;4.32;;;11.40;99.90;;;;;;5033062;28;20242;-82
2023/03/31 07:52:23;;;;;;;7.18;4.07;;;11.30;99.90;;;;;;5031390;28;20176;-84
2023/03/31 07:54:50;;;;;;;5.53;4.07;;;11.30;99.90;;;;;;5015027;28;20177;-82
2023/03/31 07:57:18;;;;;;;7.85;4.25;;;11.40;99.90;;;;;;5031267;28;20202;-82
2023/03/31 07:59:44;;;;;;;8.05;4.60;;;11.40;99.90;;;;;;5031413;28;20683;-81
2023/03/31 08:02:12;;;;;;;7.90;4.68;;;11.30;99.90;;;;;;5015008;28;20609;-82
2023/03/31 08:04:40;;;;;;;6.47;4.05;;;11.40;99.90;;;;;;5032455;28;20172;-82
2023/03/31 08:07:07;;;;;;;8.77;4.53;;;11.40;99.90;;;;;;5031232;28;20212;-82
2023/03/31 08:09:33;;;;;;;11.88;4.93;;;11.40;99.90;;;;;;5014893;28;20216;-82
2023/03/31 08:11:58;;;;;;;13.77;4.70;;;11.50;99.90;;;;;;5031294;28;20181;-82
2023/03/31 08:14:24;;;;;;;8.13;4.55;;;11.50;99.90;;;;;;5014645;28;20193;-82
2023/03/31 08:16:52;;;;;;;7.03;4.10;;;11.60;99.90;;;;;;5032094;28;20626;-83
2023/03/31 08:19:17;;;;;;;4.93;3.15;;;11.70;99.90;;;;;;5035073;28;20180;-82
2023/03/31 08:21:43;;;;;;;8.65;4.22;;;11.70;99.90;;;;;;5034850;28;20181;-82
2023/03/31 08:24:09;;;;;;;7.03;3.90;;;11.60;99.90;;;;;;5034811;28;20173;-82
2023/03/31 08:26:35;;;;;;;4.70;3.20;;;11.50;99.90;;;;;;5036084;28;20181;-82
2023/03/31 08:29:02;;;;;;;4.30;2.90;;;11.70;99.90;;;;;;5018507;28;20245;-82
2023/03/31 08:31:29;;;;;;;6.63;4.22;;;11.80;99.90;;;;;;5035573;28;20626;-82
2023/03/31 08:33:55;;;;;;;6.95;3.53;;;11.70;99.90;;;;;;5036195;28;20184;-82
2023/03/31 08:36:21;;;;;;;5.30;3.78;;;11.70;99.90;;;;;;5018297;28;20177;-81
2023/03/31 08:38:48;;;;;;;9.57;4.07;;;11.70;99.90;;;;;;5036001;28;20544;-83
2023/03/31 08:41:32;;;;;;;11.07;3.67;;;11.90;99.90;;;;;;5035670;28;20187;-82
2023/03/31 08:44:00;;;;;;;8.45;4.75;;;11.90;99.90;;;;;;5034538;28;20180;-82
2023/03/31 08:46:29;;;;;;;7.80;3.97;;;11.90;99.90;;;;;;5035293;28;20572;-81
2023/03/31 08:48:57;;;;;;;9.10;3.97;;;11.90;99.90;;;;;;5034411;28;20624;-83
2023/03/31 08:51:30;;;;;;;6.15;4.07;;;12.00;99.90;;;;;;5035461;28;20705;-82
2023/03/31 08:54:02;;;;;;;6.60;3.47;;;12.10;99.90;;;;;;5034475;28;20543;-82
2023/03/31 08:56:29;;;;;;;10.82;3.85;;;12.30;99.90;;;;;;5035417;28;20184;-83
2023/03/31 08:59:00;;;;;;;4.43;2.92;;;12.30;99.90;;;;;;5035791;28;20173;-82
2023/03/31 09:01:54;;;;;;;8.45;4.07;;;12.30;99.90;;;;;;5018245;28;20208;-82
2023/03/31 09:04:42;;;;;;;6.63;4.43;;;12.40;99.90;;;;;;5034252;28;20184;-82
2023/03/31 09:07:30;;;;;;;10.80;4.75;;;12.40;99.90;;;;;;5034034;28;20184;-82
2023/03/31 09:10:11;;;;;;;7.88;3.97;;;12.50;99.90;;;;;;5034536;28;20196;-83
2023/03/31 09:13:11;;;;;;;12.75;4.35;;;12.60;99.90;;;;;;5035333;28;20251;-82
2023/03/31 09:16:03;;;;;;;6.65;4.43;;;12.80;99.90;;;;;;5034009;28;20181;-82
2023/03/31 09:18:37;;;;;;;9.57;4.63;;;12.80;99.90;;;;;;5033500;28;20685;-82
2023/03/31 09:21:20;;;;;;;22.33;5.00;;;12.60;99.90;;;;;;5034021;28;20642;-83
2023/03/31 09:24:02;;;;;;;14.07;5.20;;;12.50;99.90;;;;;;5035352;28;20683;-83
2023/03/31 09:26:37;;;;;;;6.60;3.65;;;12.50;99.90;;;;;;5033856;28;20188;-83
2023/03/31 09:29:19;;;;;;;10.57;4.15;;;12.40;99.90;;;;;;5033703;28;20541;-83
2023/03/31 09:31:46;;;;;;;8.68;4.22;;;12.50;99.90;;;;;;5035370;28;20219;-84
2023/03/31 09:34:36;;;;;;;6.28;4.00;;;12.60;99.90;;;;;;5033645;28;20191;-82
2023/03/31 09:37:03;;;;;;;9.43;4.00;;;12.70;99.90;;;;;;5032870;28;20189;-83
2023/03/31 09:39:29;;;;;;;8.35;4.20;;;13.00;99.90;;;;;;5017072;28;20189;-81
2023/03/31 09:41:55;;;;;;;7.10;4.03;;;12.80;99.90;;;;;;5034922;28;20173;-82
2023/03/31 09:44:38;;;;;;;6.93;3.35;;;13.00;99.90;;;;;;5034561;28;20181;-82
2023/03/31 09:47:06;;;;;;;7.47;4.22;;;13.10;99.90;;;;;;5033841;28;20172;-82
2023/03/31 09:49:34;;;;;;;8.80;4.10;;;13.20;99.90;;;;;;5034434;28;20207;-84
2023/03/31 09:52:02;;;;;;;12.50;4.53;;;13.30;99.90;;;;;;5033386;28;20169;-83
2023/03/31 09:54:36;;;;;;;6.03;3.80;;;13.50;99.90;;;;;;5032830;28;20192;-84
2023/03/31 09:57:02;;;;;;;6.53;4.10;;;13.60;99.90;;;;;;5033721;28;20177;-82
2023/03/31 09:59:35;;;;;;;9.35;3.90;;;13.50;99.90;;;;;;5033018;28;20299;-83
2023/03/31 10:02:23;;;;;;;6.95;3.88;;;13.70;99.90;;;;;;5033196;28;20183;-82
2023/03/31 10:04:49;;;;;;;6.65;4.55;;;13.60;99.90;;;;;;5034754;28;20165;-81
2023/03/31 10:07:21;;;;;;;6.50;3.85;;;13.70;99.90;;;;;;5033347;28;20177;-84
2023/03/31 10:09:47;;;;;;;14.95;4.65;;;13.60;99.90;;;;;;5034359;28;20287;-84
2023/03/31 10:12:19;;;;;;;9.55;3.90;;;13.60;99.90;;;;;;5034337;28;20260;-83
2023/03/31 10:14:50;;;;;;;7.57;3.92;;;13.50;99.90;;;;;;5033865;28;20232;-82
2023/03/31 10:17:27;;;;;;;11.60;3.95;;;13.60;99.90;;;;;;5033900;28;20302;-83
2023/03/31 10:20:07;;;;;;;6.70;3.60;;;13.60;99.90;;;;;;5034019;28;20743;-84
2023/03/31 10:22:34;;;;;;;5.97;3.28;;;13.70;99.90;;;;;;5033971;28;20590;-83
2023/03/31 10:25:20;;;;;;;7.45;3.33;;;13.80;99.90;;;;;;5034154;28;20169;-84
2023/03/31 10:27:53;;;;;;;9.95;4.50;;;13.90;99.90;;;;;;5032321;28;20649;-83
2023/03/31 10:30:34;;;;;;;5.38;3.22;;;14.00;99.90;;;;;;5033330;28;20294;-84
2023/03/31 10:33:04;;;;;;;7.90;4.10;;;13.90;99.90;;;;;;5033978;28;20286;-83
2023/03/31 10:35:33;;;;;;;8.80;4.43;;;14.00;99.90;;;;;;5032623;28;20169;-84
2023/03/31 10:38:03;;;;;;;9.85;3.30;;;13.90;99.90;;;;;;5034217;28;20184;-82
2023/03/31 10:40:32;;;;;;;4.80;2.97;;;13.70;99.90;;;;;;5033494;28;20192;-83
2023/03/31 10:43:15;;;;;;;3.58;2.83;;;13.80;99.90;;;;;;5033262;28;20292;-82
2023/03/31 10:45:50;;;;;;;4.70;2.85;;;13.80;99.90;;;;;;5032225;28;20207;-82
2023/03/31 10:48:25;;;;;;;6.07;2.83;;;13.80;99.90;;;;;;5033638;28;20200;-82
2023/03/31 10:50:51;;;;;;;6.07;2.67;;;14.10;99.90;;;;;;5033787;28;20237;-83
2023/03/31 10:53:18;;;;;;;7.15;3.30;;;14.30;99.90;;;;;;5033761;28;20212;-82
2023/03/31 10:56:26;;;;;;;4.57;2.88;;;14.60;99.90;;;;;;5032125;28;20177;-82
2023/03/31 10:59:09;;;;;;;6.82;3.17;;;14.80;99.90;;;;;;5033664;28;20286;-83
2023/03/31 11:01:54;;;;;;;5.43;3.08;;;14.80;99.90;;;;;;5033408;28;20157;-83
2023/03/31 11:04:45;;;;;;;4.00;2.72;;;14.70;99.90;;;;;;5014694;28;20645;-83
2023/03/31 11:07:39;;;;;;;5.10;3.15;;;14.60;99.90;;;;;;5032279;28;20180;-83
2023/03/31 11:10:27;;;;;;;6.63;3.17;;;14.50;99.90;;;;;;5033435;28;20613;-82
2023/03/31 11:13:19;;;;;;;3.58;3.15;;;14.70;99.90;;;;;;5032319;28;20191;-82
2023/03/31 11:16:04;;;;;;;3.90;2.35;;;14.60;99.90;;;;;;5033121;28;20247;-82
2023/03/31 11:18:50;;;;;;;4.30;2.38;;;14.50;99.90;;;;;;5033085;28;20224;-83
2023/03/31 11:21:22;;;;;;;5.95;2.15;;;14.80;99.90;;;;;;5034270;28;20550;-82
2023/03/31 11:23:57;;;;;;;4.47;2.70;;;15.00;99.90;;;;;;5033182;28;20650;-82
2023/03/31 11:26:31;;;;;;;5.07;2.53;;;14.90;99.90;;;;;;5032073;28;20727;-83
2023/03/31 11:29:24;;;;;;;2.45;2.08;;;15.20;99.90;;;;;;5032067;28;20314;-83
2023/03/31 11:32:08;;;;;;;2.70;2.20;;;15.30;99.90;;;;;;5031853;28;20176;-83
2023/03/31 11:34:58;;;;;;;2.78;1.80;;;15.20;99.90;;;;;;5031641;28;20180;-84
2023/03/31 11:37:34;;;;;;;5.43;3.10;;;15.20;99.90;;;;;;5033039;28;20183;-83
2023/03/31 11:40:24;;;;;;;2.90;2.00;;;15.20;99.90;;;;;;5031675;28;20171;-83
2023/03/31 11:42:59;;;;;;;3.35;2.42;;;15.40;99.90;;;;;;5032933;28;20605;-82
2023/03/31 11:45:32;;;;;;;4.15;2.35;;;15.20;99.90;;;;;;5031673;28;20180;-83
2023/03/31 11:48:09;;;;;;;2.83;2.10;;;15.00;99.90;;;;;;5033105;28;20290;-81
2023/03/31 11:50:38;;;;;;;5.00;2.50;;;15.00;99.90;;;;;;5032024;28;20181;-83
2023/03/31 11:53:23;;;;;;;3.38;2.50;;;14.90;99.90;;;;;;5035551;28;20235;-82
2023/03/31 11:55:52;;;;;;;4.13;2.63;;;14.90;99.90;;;;;;5036580;28;20165;-82
2023/03/31 11:58:32;;;;;;;6.38;2.67;;;14.90;99.90;;;;;;5036660;28;20513;-82
2023/03/31 12:01:07;;;;;;;3.20;2.60;;;15.00;99.90;;;;;;5035152;28;20181;-84
2023/03/31 12:03:48;;;;;;;7.07;3.70;;;14.80;99.90;;;;;;5036805;28;20286;-83
2023/03/31 12:06:20;;;;;;;3.63;3.05;;;14.60;99.90;;;;;;5040490;28;20180;-83
2023/03/31 12:09:08;;;;;;;5.93;2.65;;;14.60;99.90;;;;;;5037469;28;20197;-83
2023/03/31 12:11:54;;;;;;;10.27;3.17;;;12.90;99.90;;;;;;5036568;28;20184;-81
2023/03/31 12:14:32;;;;;;;4.88;3.20;;;14.40;99.90;;;;;;5035560;28;20176;-82
2023/03/31 12:17:19;;;;;;;10.20;3.25;;;14.40;99.90;;;;;;5037230;28;20268;-82
2023/03/31 12:19:56;;;;;;;6.57;3.60;;;14.40;99.90;;;;;;5036461;28;20175;-84
2023/03/31 12:22:33;;;;;;;6.45;3.25;;;14.30;99.90;;;;;;5035538;28;20176;-82
2023/03/31 12:24:59;;;;;;;6.88;3.70;;;14.30;99.90;;;;;;5036288;28;20157;-82
2023/03/31 12:27:37;;;;;;;8.35;4.68;;;14.30;99.90;;;;;;5039050;28;20177;-84
2023/03/31 12:30:33;;;;;;;7.63;4.63;;;14.30;99.90;;;;;;5036811;28;20192;-83
2023/03/31 12:33:37;;;;;;;5.65;4.50;;;14.40;99.90;;;;;;5035054;28;20986;-83
2023/03/31 12:36:24;;;;;;;9.50;4.72;;;14.30;99.90;;;;;;5007230;28;20192;-83
2023/03/31 12:39:21;;;;;;;8.07;4.45;;;14.20;99.90;;;;;;5034778;28;20191;-83
2023/03/31 12:41:56;;;;;;;8.90;3.92;;;14.20;99.90;;;;;;5034871;28;20267;-83
2023/03/31 12:44:35;;;;;;;7.65;4.22;;;14.10;99.90;;;;;;5035141;28;20200;-82
2023/03/31 12:47:18;;;;;;;10.77;4.00;;;14.10;99.90;;;;;;5035852;28;20187;-82
2023/03/31 12:50:11;;;;;;;10.32;4.20;;;14.10;99.90;;;;;;5034662;28;20313;-82
2023/03/31 12:52:57;;;;;;;10.70;4.15;;;14.10;99.90;;;;;;5035132;28;20570;-83
2023/03/31 12:55:57;;;;;;;9.90;4.10;;;14.00;99.90;;;;;;5036225;28;20690;-83
2023/03/31 12:58:27;;;;;;;6.25;4.03;;;14.00;99.90;;;;;;5034540;28;20215;-81
2023/03/31 13:01:22;;;;;;;8.77;3.53;;;14.00;99.90;;;;;;5035524;28;20612;-81
2023/03/31 13:03:52;;;;;;;7.28;3.78;;;14.10;99.90;;;;;;5035573;28;20252;-82
2023/03/31 13:06:29;;;;;;;8.75;3.65;;;14.10;99.90;;;;;;5035718;28;20263;-83
2023/03/31 13:09:07;;;;;;;3.80;2.83;;;14.30;99.90;;;;;;5034368;28;20212;-82
2023/03/31 13:11:35;;;;;;;5.93;3.63;;;14.40;99.90;;;;;;5019059;28;20177;-83
2023/03/31 13:14:26;;;;;;;5.05;2.95;;;14.40;99.90;;;;;;5035212;28;20256;-83
2023/03/31 13:17:10;;;;;;;5.63;2.65;;;14.60;99.90;;;;;;5035337;28;20199;-83
2023/03/31 13:19:36;;;;;;;5.93;3.05;;;14.70;99.90;;;;;;5036068;28;20234;-82
2023/03/31 13:22:04;;;;;;;4.95;2.90;;;14.70;99.90;;;;;;5048675;28;20180;-82
2023/03/31 13:24:31;;;;;;;4.60;2.45;;;14.70;99.90;;;;;;5054845;28;20176;-83